Warren, PA

12:16 AM EDT on September 24, 2014 (GMT -0400)
Chautauqua County-Dunkirk | Change Station
CLOSE
Current Station
Airport
Location: Dunkirk,
Elevation: 692 ft
Nearby Weather Stations

Elev 692 ft 42.49 °N, 79.28 °W | Updated 23 minutes ago

Clear
Clear
47 °F
Feels Like 47 °F
N
5
Wind Variable Wind from South

Today
High -- | Low -- °F
--% Chance of Precip.
Yesterday
High -- | Low -- °F
Precip. -- in
7:06 AM 7:10 PM
Waning Crescent, 0% visible
Pressure 30.41 in
Visibility 10.0 miles
Clouds Clear
Dew Point 45 °F
Humidity 93%
Rainfall 0.00 in
Snow Depth Not available.
UV 0 out of 12
Pollen 3.30 out of 12
Air Quality Not available.
Flu Activity Not available.
METAR KDKK 240353Z AUTO 19004KT 10SM CLR 08/07 A3040 RMK AO2 SLP296 T00830072

More Conditions Fewer Conditions

Pressure 30.41 in
Visibility 10.0 miles
Clouds Clear
Dew Point 45 °F
Humidity 93%
Rainfall 0.00 in
Snow Depth Not available.
UV 0 out of 12
Pollen 3.30 out of 12
Air Quality Not available.
Flu Activity Not available.
METAR KDKK 240353Z AUTO 19004KT 10SM CLR 08/07 A3040 RMK AO2 SLP296 T00830072

More Conditions Fewer Conditions

10-Day Weather Forecast

Almanac

Astronomy

Sep. 24, 2014 Rise Set
Actual Time 7:06 AM EDT 7:10 PM EDT
Civil Twilight 6:38 AM EDT 7:38 PM EDT
Nautical Twilight 6:05 AM EDT 8:10 PM EDT
Astronomical Twilight 5:32 AM EDT 8:43 PM EDT
Moon 7:25 AM EDT 7:19 PM EDT
Length of Visible Light 12h 59m
Length of Day
12h 04m
Tomorrow will be 2m 47s shorter.
Waning Crescent, 0% of the Moon is Illuminated
Today
Waning Crescent
Sep 24
New
Oct 1
First Quarter
Oct 8
Full
Oct 15
Last Quarter

Yesterday's Extremes

State Highs State Lows

Community

WunderPhotos

Upload Photos

1,755,890 photos uploaded!

WunderBlogs® & News

Nearby

Snow Depth

Station Depth Elevation
No new snow has been reported.

Earthquake Activity

City Distance Mag. Time & Date
No recent earthquake activity has been reported nearby.
Minimum magnitude displayed is 2.5.

Coastal Water Temperatures

Place Temperature
No Stations Reporting

Nearby Weather Stations